LiveATC.Net - Listen to live air traffic control over the Internet!


ICAO: LRCL  IATA: CLJ   Airport: Cluj-Napoca International Airport
City: Cluj-Napoca
Country: Romania   Continent: Europe
LRCL METAR Weather: LRCL 260630Z 14004KT 090V170 1600 -SG BR OVC002 M03/M03 Q1027 R07/19//95
LRCL Flight Activity (FlightAware)

LRCL Twr/App #1
Feed Status: UP   Listeners: 0
Listen in your browser - HTML5 player (in browser, HTML5)
Click here to listen with your own player (launches your MP3 player)
Archive Access: LRCL Twr/App #1
FacilityFrequency
Cluj Approach126.425
Cluj Tower118.705

LRCL Twr/App/ACC
Feed Status: DOWN
Last heard on: 2020-11-26 00:13:23 (0 days 6 hours 51 minutes ago)
Archive Access: LRCL Twr/App/ACC
FacilityFrequency
Cluj Approach126.425
Cluj Tower118.705
Napoc ACC127.075

NOTICE

Unauthorized use prohibited. See LiveATC.net Terms of Service


Airport/ARTCC Code
Frequency Search
(e.g., 124.400, 128.75)
Site-wide search
 


Browse Feeds
Top 50 Feeds
Coverage Map
Bad Weather Areas

LiveATC FAQ
Offer LiveATC feed
Contact LiveATC.net
Press Inquiries

LiveATC on iPhone
LiveATC on Android

Windows Phone
Windows 8/10

LiveATC Mobile
(Mobile browser)

ATC Audio Archives
Interesting Recordings

LiveATC Forums


Home Page
About LiveATC.net
Make a Donation
Terms of Use
Privacy Policy

Canadian Air Freqs

AIRMETs/SIGMETs

FAA Airport Status
Nat'l Airspace Status
Arrival Demand Charts


Server Software By:
Icecast.org
Liquidsoap